Terminal Aerodrome Forecast
Issued by NWS

Home | Current Version | Previous Version | Text Only | Print | Product List | Glossary On
Versions: 1 2 3 4 5 6 7 8 9 10 11 12 13 14 15 16 17 18 19 20 21 22 23 24 25 26 27 28 29 30 31
219
FTUS41 KBOX 052320
TAFHYA
TAF
KHYA 052320Z 0600/0624 33014G30KT 3SM -SN BR BKN010
     FM060115 33014G27KT P6SM BKN140
     FM060500 33011G25KT P6SM FEW250
     FM060600 34007KT P6SM SKC
     FM061600 29006KT P6SM FEW200
     FM061700 25006KT P6SM FEW200=

USA.gov is the U.S. government's official web portal to all federal, state and local government web resources and services.